Time;durP1;ratioP1;P1;durP2;ratioP2;P2;SDS_P1;SDS_P2;PMS_P1;PMS_P2;Temp;Humidity;BMP_temperature;BMP_pressure;BME280_temperature;BME280_humidity;BME280_pressure;Samples;Min_cycle;Max_cycle;Signal;HPM_P1;HPM_P2
2021/09/24 00:00:53;;;;;;;16.33;14.80;;;16.90;99.90;;;;;;5004833;28;20465;-71
2021/09/24 00:03:20;;;;;;;16.77;15.10;;;16.90;99.90;;;;;;5009097;28;20489;-72
2021/09/24 00:05:47;;;;;;;14.53;13.50;;;16.90;99.90;;;;;;5009997;28;20462;-71
2021/09/24 00:08:14;;;;;;;18.93;15.43;;;16.90;99.90;;;;;;5011015;28;20503;-71
2021/09/24 00:10:41;;;;;;;15.87;14.60;;;16.90;99.90;;;;;;5008697;28;20461;-71
2021/09/24 00:13:08;;;;;;;16.37;14.70;;;16.90;99.90;;;;;;5007551;28;20482;-71
2021/09/24 00:15:35;;;;;;;16.73;14.90;;;16.90;99.90;;;;;;5009560;28;20806;-71
2021/09/24 00:18:04;;;;;;;15.60;14.40;;;16.80;99.90;;;;;;5010318;28;20458;-72
2021/09/24 00:20:31;;;;;;;15.80;14.60;;;16.80;99.90;;;;;;5012327;28;20458;-72
2021/09/24 00:22:58;;;;;;;16.30;14.90;;;16.80;99.90;;;;;;5013002;27;20471;-71
2021/09/24 00:25:25;;;;;;;18.77;15.43;;;16.80;99.90;;;;;;5007369;28;20479;-71
2021/09/24 00:27:52;;;;;;;15.37;13.93;;;16.80;99.90;;;;;;5004888;28;20990;-71
2021/09/24 00:30:19;;;;;;;16.63;14.93;;;16.80;99.90;;;;;;5008020;28;20458;-72
2021/09/24 00:32:46;;;;;;;17.03;15.03;;;16.80;99.90;;;;;;5003639;28;20461;-72
2021/09/24 00:35:16;;;;;;;16.97;15.47;;;16.80;99.90;;;;;;5006614;28;20469;-71
2021/09/24 00:37:43;;;;;;;16.07;14.50;;;16.80;99.90;;;;;;5007628;28;20487;-73
2021/09/24 00:40:12;;;;;;;16.63;15.37;;;16.80;99.90;;;;;;5004930;28;20469;-73
2021/09/24 00:42:39;;;;;;;15.73;14.40;;;16.80;99.90;;;;;;5005849;28;20480;-71
2021/09/24 00:45:07;;;;;;;18.07;16.27;;;16.80;99.90;;;;;;5007717;28;20472;-71
2021/09/24 00:47:34;;;;;;;20.83;16.00;;;16.80;99.90;;;;;;5012415;28;20484;-71
2021/09/24 00:50:01;;;;;;;17.83;16.10;;;16.90;99.90;;;;;;5009404;28;20963;-71
2021/09/24 00:52:29;;;;;;;17.50;15.90;;;17.00;99.90;;;;;;5009810;28;20873;-72
2021/09/24 00:54:56;;;;;;;17.73;16.07;;;16.90;99.90;;;;;;5009975;28;20458;-71
2021/09/24 00:57:24;;;;;;;17.53;16.13;;;17.00;99.90;;;;;;5010808;28;20458;-71
2021/09/24 00:59:52;;;;;;;26.03;16.17;;;16.90;99.90;;;;;;5005331;28;20469;-72
2021/09/24 01:02:20;;;;;;;17.47;16.03;;;16.90;99.90;;;;;;5011827;28;20465;-71
2021/09/24 01:04:48;;;;;;;18.33;16.73;;;16.80;99.90;;;;;;5003738;28;20571;-71
2021/09/24 01:07:15;;;;;;;18.53;16.80;;;16.80;99.90;;;;;;5007308;28;20466;-71
2021/09/24 01:09:43;;;;;;;17.87;16.33;;;16.80;99.90;;;;;;5005843;28;20473;-71
2021/09/24 01:12:11;;;;;;;19.80;17.57;;;16.80;99.90;;;;;;5010002;28;20482;-71
2021/09/24 01:14:38;;;;;;;17.80;16.20;;;16.80;99.90;;;;;;5005990;28;20551;-71
2021/09/24 01:17:05;;;;;;;19.30;17.50;;;16.70;99.90;;;;;;5012390;28;20462;-71
2021/09/24 01:19:33;;;;;;;18.70;17.20;;;16.70;99.90;;;;;;5009236;28;20465;-71
2021/09/24 01:22:02;;;;;;;18.13;16.73;;;16.70;99.90;;;;;;5019515;27;20813;-70
2021/09/24 01:24:29;;;;;;;17.83;16.23;;;16.70;99.90;;;;;;5001705;28;20461;-71
2021/09/24 01:26:57;;;;;;;19.70;17.47;;;16.60;99.90;;;;;;5008828;28;20457;-71
2021/09/24 01:29:26;;;;;;;19.33;17.63;;;16.60;99.90;;;;;;5010552;28;20484;-71
2021/09/24 01:31:54;;;;;;;19.57;17.20;;;16.60;99.90;;;;;;5007230;28;20462;-71
2021/09/24 01:34:21;;;;;;;19.30;17.40;;;16.50;99.90;;;;;;5013174;28;21303;-72
2021/09/24 01:36:48;;;;;;;20.10;18.30;;;16.50;99.90;;;;;;5007553;28;20464;-71
2021/09/24 01:39:16;;;;;;;19.67;17.87;;;16.50;99.90;;;;;;5006865;28;20470;-70
2021/09/24 01:41:46;;;;;;;18.80;17.03;;;16.50;99.90;;;;;;5002308;28;20454;-72
2021/09/24 01:44:13;;;;;;;23.97;18.27;;;16.40;99.90;;;;;;5003500;28;20458;-72
2021/09/24 01:46:41;;;;;;;18.73;17.23;;;16.50;99.90;;;;;;5019364;28;20466;-71
2021/09/24 01:49:09;;;;;;;19.37;17.53;;;16.50;99.90;;;;;;5008216;28;20482;-72
2021/09/24 01:51:38;;;;;;;19.73;17.80;;;16.50;99.90;;;;;;5007775;28;20476;-72
2021/09/24 01:54:06;;;;;;;21.83;19.63;;;16.50;99.90;;;;;;5010323;28;20465;-71
2021/09/24 01:56:34;;;;;;;24.97;19.80;;;16.40;99.90;;;;;;5012661;28;20461;-71
2021/09/24 01:59:01;;;;;;;21.57;18.77;;;16.40;99.90;;;;;;5010569;28;20458;-72
2021/09/24 02:01:28;;;;;;;21.13;18.93;;;16.40;99.90;;;;;;5010595;28;20483;-72
2021/09/24 02:03:55;;;;;;;24.90;19.50;;;16.40;99.90;;;;;;5001374;28;20489;-71
2021/09/24 02:06:22;;;;;;;21.47;19.17;;;16.40;99.90;;;;;;5011627;28;20461;-71
2021/09/24 02:08:49;;;;;;;22.67;20.30;;;16.30;99.90;;;;;;5004979;28;20546;-71
2021/09/24 02:11:17;;;;;;;22.77;20.07;;;16.30;99.90;;;;;;5009408;28;20475;-72
2021/09/24 02:13:45;;;;;;;25.63;20.53;;;16.30;99.90;;;;;;5008942;28;20492;-72
2021/09/24 02:16:13;;;;;;;22.30;20.00;;;16.40;99.90;;;;;;5008855;28;20463;-71
2021/09/24 02:18:40;;;;;;;24.47;21.97;;;16.30;99.90;;;;;;5007274;28;20453;-72
2021/09/24 02:21:08;;;;;;;23.03;20.70;;;16.40;99.90;;;;;;5008519;28;20466;-71
2021/09/24 02:23:35;;;;;;;28.43;20.73;;;16.30;99.90;;;;;;5019254;27;20974;-71
2021/09/24 02:26:02;;;;;;;23.30;20.57;;;16.40;99.90;;;;;;5001133;28;20807;-72
2021/09/24 02:28:29;;;;;;;23.13;20.90;;;16.40;99.90;;;;;;5009946;28;20593;-72
2021/09/24 02:30:59;;;;;;;22.23;20.10;;;16.40;99.90;;;;;;5005135;28;20939;-72
2021/09/24 02:33:26;;;;;;;24.50;22.00;;;16.40;99.90;;;;;;5007623;28;20472;-71
2021/09/24 02:35:53;;;;;;;25.70;23.00;;;16.40;99.90;;;;;;5009003;28;20485;-72
2021/09/24 02:38:20;;;;;;;27.63;22.53;;;16.40;99.90;;;;;;5013316;28;20461;-70
2021/09/24 02:40:47;;;;;;;25.93;23.20;;;16.40;99.90;;;;;;5008885;28;20466;-71
2021/09/24 02:43:14;;;;;;;27.43;22.60;;;16.30;99.90;;;;;;5008147;28;20799;-71
2021/09/24 02:45:41;;;;;;;28.50;21.87;;;16.30;99.90;;;;;;5008948;28;20471;-71
2021/09/24 02:48:09;;;;;;;29.70;23.43;;;16.20;99.90;;;;;;5006706;28;21098;-71
2021/09/24 02:50:36;;;;;;;26.70;21.50;;;16.20;99.90;;;;;;5006411;28;20458;-72
2021/09/24 02:53:04;;;;;;;22.80;20.60;;;16.20;99.90;;;;;;5007704;28;20449;-70
2021/09/24 02:55:31;;;;;;;29.70;23.00;;;16.10;99.90;;;;;;5007353;28;20457;-71
2021/09/24 02:57:58;;;;;;;26.30;22.13;;;16.00;99.90;;;;;;5008821;28;20549;-71
2021/09/24 03:00:26;;;;;;;29.57;23.50;;;16.00;99.90;;;;;;5009558;28;20461;-70
2021/09/24 03:02:53;;;;;;;43.47;25.23;;;16.00;99.90;;;;;;5005514;28;20496;-71
2021/09/24 03:05:21;;;;;;;30.50;23.73;;;16.00;99.90;;;;;;5009639;28;20461;-71
2021/09/24 03:07:48;;;;;;;28.53;23.83;;;15.90;99.90;;;;;;5001480;28;20465;-71
2021/09/24 03:10:16;;;;;;;35.90;24.80;;;15.90;99.90;;;;;;5012501;28;20468;-71
2021/09/24 03:12:43;;;;;;;31.20;25.90;;;15.80;99.90;;;;;;5007426;28;20530;-71
2021/09/24 03:15:12;;;;;;;29.07;26.00;;;15.80;99.90;;;;;;5005460;28;20468;-72
2021/09/24 03:17:39;;;;;;;33.57;25.70;;;15.90;99.90;;;;;;5002962;28;20813;-71
2021/09/24 03:20:08;;;;;;;36.73;25.90;;;15.80;99.90;;;;;;5009521;28;20472;-70
2021/09/24 03:22:36;;;;;;;31.57;26.93;;;15.80;99.90;;;;;;5027662;28;20501;-71
2021/09/24 03:25:03;;;;;;;36.20;28.47;;;15.70;99.90;;;;;;5005581;28;20959;-71
2021/09/24 03:27:30;;;;;;;36.00;26.30;;;15.80;99.90;;;;;;5004255;28;20931;-70
2021/09/24 03:29:58;;;;;;;38.73;26.23;;;15.80;99.90;;;;;;5002427;28;21179;-71
2021/09/24 03:32:25;;;;;;;28.03;24.90;;;15.70;99.90;;;;;;5007216;28;20456;-71
2021/09/24 03:34:52;;;;;;;36.33;26.83;;;15.70;99.90;;;;;;5007212;28;20476;-72
2021/09/24 03:37:19;;;;;;;32.47;24.67;;;15.70;99.90;;;;;;5006251;28;20739;-71
2021/09/24 03:39:48;;;;;;;36.20;29.63;;;15.70;99.90;;;;;;5002895;28;20493;-71
2021/09/24 03:42:14;;;;;;;41.33;28.23;;;15.70;99.90;;;;;;5010691;28;20461;-70
2021/09/24 03:44:41;;;;;;;35.50;27.07;;;15.60;99.90;;;;;;5006954;28;21551;-71
2021/09/24 03:47:09;;;;;;;35.03;25.77;;;15.50;99.90;;;;;;5008907;28;20469;-71
2021/09/24 03:49:37;;;;;;;38.20;27.47;;;15.50;99.90;;;;;;5002302;28;20524;-71
2021/09/24 03:52:04;;;;;;;37.30;28.60;;;15.60;99.90;;;;;;5008033;28;20458;-72
2021/09/24 03:54:32;;;;;;;46.30;28.20;;;15.70;99.90;;;;;;5010972;28;20477;-71
2021/09/24 03:57:00;;;;;;;38.60;27.17;;;15.60;99.90;;;;;;5014030;28;20635;-72
2021/09/24 03:59:27;;;;;;;48.00;31.07;;;15.70;99.90;;;;;;5012577;28;20469;-71
2021/09/24 04:01:54;;;;;;;33.00;27.70;;;15.70;99.90;;;;;;5013224;28;20796;-72
2021/09/24 04:04:21;;;;;;;34.73;27.70;;;15.70;99.90;;;;;;5005511;28;20593;-71
2021/09/24 04:06:48;;;;;;;41.00;29.33;;;15.80;99.90;;;;;;5007104;28;20468;-72
2021/09/24 04:09:15;;;;;;;40.77;29.63;;;15.70;99.90;;;;;;5008844;28;20481;-72
2021/09/24 04:11:42;;;;;;;39.50;30.57;;;15.70;99.90;;;;;;5008567;28;20457;-71
2021/09/24 04:14:10;;;;;;;38.87;30.13;;;15.70;99.90;;;;;;5012473;28;20450;-71
2021/09/24 04:16:38;;;;;;;43.27;28.13;;;15.70;99.90;;;;;;5007102;28;20959;-71
2021/09/24 04:19:05;;;;;;;46.87;29.23;;;15.70;99.90;;;;;;5009977;28;20497;-71
2021/09/24 04:21:32;;;;;;;37.00;28.67;;;15.70;99.90;;;;;;5022784;27;20483;-72
2021/09/24 04:23:59;;;;;;;39.70;30.33;;;15.60;99.90;;;;;;5010394;28;20468;-71
2021/09/24 04:26:26;;;;;;;49.43;32.20;;;15.70;99.90;;;;;;5008216;28;20468;-72
2021/09/24 04:28:54;;;;;;;47.33;32.27;;;15.70;99.90;;;;;;5004112;28;20493;-71
2021/09/24 04:31:22;;;;;;;48.00;33.60;;;15.70;99.90;;;;;;5011150;28;20468;-71
2021/09/24 04:33:49;;;;;;;43.70;33.17;;;15.70;99.90;;;;;;5011726;28;20458;-71
2021/09/24 04:36:16;;;;;;;39.40;31.10;;;15.70;99.90;;;;;;5007837;28;20496;-71
2021/09/24 04:38:43;;;;;;;47.10;31.87;;;15.70;99.90;;;;;;5008565;28;20809;-71
2021/09/24 04:41:10;;;;;;;49.30;33.83;;;15.70;99.90;;;;;;5013682;28;20456;-71
2021/09/24 04:43:38;;;;;;;46.93;33.43;;;15.70;99.90;;;;;;5007358;28;20716;-72
2021/09/24 04:46:05;;;;;;;51.93;34.67;;;15.60;99.90;;;;;;5011375;28;20523;-71
2021/09/24 04:48:33;;;;;;;42.60;32.60;;;15.50;99.90;;;;;;5011729;28;20605;-71
2021/09/24 04:51:02;;;;;;;40.57;32.27;;;15.60;99.90;;;;;;5009755;28;20461;-71
2021/09/24 04:53:30;;;;;;;46.57;32.10;;;15.60;99.90;;;;;;5010560;28;20552;-71
2021/09/24 04:55:58;;;;;;;45.57;32.80;;;15.70;99.90;;;;;;4996527;28;20489;-71
2021/09/24 04:58:25;;;;;;;49.20;31.97;;;15.60;99.90;;;;;;5004457;28;20786;-71
2021/09/24 05:00:52;;;;;;;38.00;29.97;;;15.60;99.90;;;;;;5011692;28;21069;-71
2021/09/24 05:03:18;;;;;;;40.87;31.13;;;15.60;99.90;;;;;;5014421;28;20712;-72
2021/09/24 05:05:47;;;;;;;36.63;29.17;;;15.50;99.90;;;;;;5009915;28;20809;-70
2021/09/24 05:08:13;;;;;;;46.20;31.67;;;15.30;99.90;;;;;;5006999;28;20460;-71
2021/09/24 05:10:42;;;;;;;39.53;30.07;;;15.30;99.90;;;;;;5014294;28;20541;-71
2021/09/24 05:13:08;;;;;;;37.70;29.80;;;15.20;99.90;;;;;;5008726;28;20482;-71
2021/09/24 05:15:36;;;;;;;37.90;27.30;;;15.10;99.90;;;;;;5006699;28;21162;-71
2021/09/24 05:18:02;;;;;;;49.67;32.50;;;15.10;99.90;;;;;;5012423;28;20454;-71
2021/09/24 05:20:29;;;;;;;44.17;29.83;;;15.00;99.90;;;;;;5009216;28;20465;-71
2021/09/24 05:22:58;;;;;;;43.17;29.50;;;15.00;99.90;;;;;;5007422;28;20547;-71
2021/09/24 05:25:25;;;;;;;38.17;27.47;;;14.90;99.90;;;;;;5008521;28;20488;-71
2021/09/24 05:27:52;;;;;;;41.13;26.73;;;14.90;99.90;;;;;;5008675;28;20461;-71
2021/09/24 05:30:21;;;;;;;39.53;25.50;;;14.90;99.90;;;;;;5006570;28;20485;-72
2021/09/24 05:32:48;;;;;;;43.07;28.17;;;14.90;99.90;;;;;;5010782;28;20465;-72
2021/09/24 05:35:16;;;;;;;35.10;26.90;;;14.90;99.90;;;;;;5003275;28;20488;-71
2021/09/24 05:37:43;;;;;;;43.37;28.50;;;15.00;99.90;;;;;;5009286;28;20520;-71
2021/09/24 05:40:13;;;;;;;41.13;29.07;;;15.00;99.90;;;;;;5012827;28;20467;-71
2021/09/24 05:42:40;;;;;;;41.07;28.90;;;15.00;99.90;;;;;;5009447;28;20458;-70
2021/09/24 05:45:11;;;;;;;42.43;27.53;;;14.90;99.90;;;;;;5008385;28;20971;-71
2021/09/24 05:47:38;;;;;;;42.73;27.77;;;15.00;99.90;;;;;;5007539;28;20461;-71
2021/09/24 05:50:11;;;;;;;38.17;25.83;;;15.10;99.90;;;;;;5007848;28;20756;-71
2021/09/24 05:52:39;;;;;;;41.27;27.20;;;15.10;99.90;;;;;;5009458;28;20465;-71
2021/09/24 05:55:07;;;;;;;38.03;26.63;;;15.10;99.90;;;;;;5005570;28;20485;-71
2021/09/24 05:57:35;;;;;;;49.87;27.40;;;15.20;99.90;;;;;;5005757;28;20472;-70
2021/09/24 06:00:03;;;;;;;36.83;26.50;;;15.20;99.90;;;;;;5009777;28;20461;-72
2021/09/24 06:02:30;;;;;;;45.70;26.73;;;15.20;99.90;;;;;;5006285;27;20469;-72
2021/09/24 06:04:58;;;;;;;42.70;26.27;;;15.20;99.90;;;;;;5009131;28;20454;-71
2021/09/24 06:07:26;;;;;;;41.90;26.43;;;15.20;99.90;;;;;;5009286;28;20979;-71
2021/09/24 06:09:53;;;;;;;39.13;25.27;;;15.20;99.90;;;;;;5007758;28;20496;-71
2021/09/24 06:12:21;;;;;;;43.20;26.63;;;15.10;99.90;;;;;;5007201;28;20815;-72
2021/09/24 06:14:50;;;;;;;35.00;27.67;;;15.20;99.90;;;;;;5009939;28;20461;-72
2021/09/24 06:17:18;;;;;;;36.57;27.93;;;15.30;99.90;;;;;;5010379;28;20457;-72
2021/09/24 06:19:45;;;;;;;41.93;27.23;;;15.40;99.90;;;;;;5009713;28;20556;-71
2021/09/24 06:22:12;;;;;;;42.50;28.67;;;15.40;99.90;;;;;;5015088;27;20457;-71
2021/09/24 06:24:39;;;;;;;36.33;28.30;;;15.30;99.90;;;;;;5009408;28;20453;-70
2021/09/24 06:27:14;;;;;;;40.13;27.27;;;15.40;99.90;;;;;;5007821;28;20461;-72
2021/09/24 06:29:42;;;;;;;37.70;25.97;;;15.40;99.90;;;;;;5010410;28;20497;-71
2021/09/24 06:32:10;;;;;;;41.37;28.57;;;15.40;99.90;;;;;;5012276;28;20484;-71
2021/09/24 06:34:37;;;;;;;42.07;24.93;;;15.40;99.90;;;;;;5007998;28;20466;-71
2021/09/24 06:37:05;;;;;;;38.70;25.33;;;15.30;99.90;;;;;;5009935;28;20879;-72
2021/09/24 06:39:31;;;;;;;31.70;25.37;;;15.20;99.90;;;;;;5008479;28;20466;-71
2021/09/24 06:41:58;;;;;;;41.27;26.90;;;15.20;99.90;;;;;;5008271;28;20971;-71
2021/09/24 06:44:25;;;;;;;44.13;28.20;;;15.40;99.90;;;;;;5007234;28;20458;-70
2021/09/24 06:46:52;;;;;;;34.00;25.43;;;15.40;99.90;;;;;;5007744;28;20461;-71
2021/09/24 06:49:23;;;;;;;34.07;26.10;;;15.40;99.90;;;;;;5004076;28;21271;-71
2021/09/24 06:51:50;;;;;;;39.03;27.23;;;15.50;99.90;;;;;;5001493;28;20559;-71
2021/09/24 06:54:17;;;;;;;40.23;28.47;;;15.50;99.90;;;;;;5011623;28;20542;-71
2021/09/24 06:56:44;;;;;;;37.33;27.50;;;15.50;99.90;;;;;;5003556;28;20935;-72
2021/09/24 06:59:11;;;;;;;44.73;28.73;;;15.60;99.90;;;;;;5004149;28;20491;-72
2021/09/24 07:01:39;;;;;;;46.23;29.80;;;15.50;99.90;;;;;;5009988;28;20470;-71
2021/09/24 07:04:06;;;;;;;45.90;29.60;;;15.70;99.90;;;;;;5003238;28;20885;-70
2021/09/24 07:06:35;;;;;;;47.00;29.87;;;15.70;99.90;;;;;;5009423;28;20563;-71
2021/09/24 07:09:02;;;;;;;39.63;28.63;;;15.70;99.90;;;;;;5009966;28;20812;-71
2021/09/24 07:11:29;;;;;;;47.50;31.20;;;15.80;99.90;;;;;;5004950;28;20461;-71
2021/09/24 07:13:57;;;;;;;44.23;30.97;;;15.90;99.90;;;;;;5011418;28;20517;-72
2021/09/24 07:16:25;;;;;;;43.63;31.73;;;15.90;99.90;;;;;;5008373;28;20963;-72
2021/09/24 07:18:52;;;;;;;49.67;30.00;;;15.90;99.90;;;;;;5012052;28;20465;-72
2021/09/24 07:21:19;;;;;;;45.00;31.40;;;16.00;99.90;;;;;;5012041;28;20471;-72
2021/09/24 07:23:48;;;;;;;40.40;30.37;;;16.00;99.90;;;;;;5015635;27;20464;-71
2021/09/24 07:26:15;;;;;;;43.43;29.23;;;16.00;99.90;;;;;;5008950;28;20518;-71
2021/09/24 07:28:42;;;;;;;37.27;27.80;;;15.90;99.90;;;;;;5011582;28;20473;-71
2021/09/24 07:31:09;;;;;;;48.63;30.20;;;16.00;99.90;;;;;;5015528;28;20495;-72
2021/09/24 07:33:36;;;;;;;39.33;30.67;;;16.00;99.90;;;;;;5011969;28;21005;-72
2021/09/24 07:36:03;;;;;;;38.27;26.87;;;16.10;99.90;;;;;;5011898;28;20456;-71
2021/09/24 07:38:31;;;;;;;38.67;27.23;;;16.10;99.90;;;;;;5012858;28;20462;-71
2021/09/24 07:40:59;;;;;;;38.93;28.47;;;15.90;99.90;;;;;;5010766;28;20465;-71
2021/09/24 07:43:27;;;;;;;39.10;28.63;;;16.10;99.90;;;;;;5015981;28;20599;-72
2021/09/24 07:45:56;;;;;;;33.33;24.43;;;16.10;99.90;;;;;;5010605;28;20465;-72
2021/09/24 07:48:22;;;;;;;33.13;25.97;;;16.00;99.90;;;;;;5011831;28;20458;-72
2021/09/24 07:50:50;;;;;;;32.10;24.70;;;16.10;99.90;;;;;;5012945;28;21047;-72
2021/09/24 07:53:17;;;;;;;32.17;23.83;;;16.30;99.90;;;;;;5012889;28;20824;-71
2021/09/24 07:55:44;;;;;;;31.90;24.17;;;16.40;99.90;;;;;;5012848;28;20461;-72
2021/09/24 07:58:13;;;;;;;24.53;21.87;;;16.50;99.90;;;;;;5013478;28;20457;-72
2021/09/24 08:00:40;;;;;;;28.13;23.30;;;16.40;99.90;;;;;;5010365;28;20456;-72
2021/09/24 08:03:07;;;;;;;26.27;21.60;;;16.60;99.90;;;;;;5007904;28;21309;-72
2021/09/24 08:05:34;;;;;;;23.80;21.53;;;16.60;99.90;;;;;;5012666;28;20798;-71
2021/09/24 08:08:01;;;;;;;26.20;23.07;;;16.70;99.90;;;;;;5010938;28;20463;-71
2021/09/24 08:10:29;;;;;;;26.53;22.40;;;16.70;99.90;;;;;;5010513;28;20493;-72
2021/09/24 08:12:56;;;;;;;29.00;24.40;;;16.90;99.90;;;;;;5012314;28;20938;-71
2021/09/24 08:15:25;;;;;;;26.27;22.50;;;17.20;99.90;;;;;;5012376;28;20608;-71
2021/09/24 08:17:53;;;;;;;26.10;23.30;;;17.40;99.90;;;;;;5013229;28;20466;-71
2021/09/24 08:20:20;;;;;;;28.97;22.90;;;17.40;99.90;;;;;;5011418;28;20540;-71
2021/09/24 08:22:47;;;;;;;27.77;23.50;;;17.40;99.90;;;;;;5012290;28;20465;-72
2021/09/24 08:25:16;;;;;;;23.40;21.20;;;17.40;99.90;;;;;;5009043;28;20789;-72
2021/09/24 08:27:44;;;;;;;22.97;20.97;;;17.70;99.90;;;;;;5011881;28;20466;-71
2021/09/24 08:30:13;;;;;;;23.40;20.97;;;18.00;99.90;;;;;;5011241;28;21013;-70
2021/09/24 08:32:42;;;;;;;23.47;21.13;;;18.20;99.90;;;;;;5005011;28;21002;-71
2021/09/24 08:35:11;;;;;;;24.43;22.03;;;18.40;99.90;;;;;;5010579;28;20468;-71
2021/09/24 08:37:39;;;;;;;23.20;21.20;;;18.40;99.90;;;;;;5009420;28;20994;-70
2021/09/24 08:40:08;;;;;;;22.40;20.60;;;18.30;99.90;;;;;;5012182;28;20807;-71
2021/09/24 08:42:39;;;;;;;23.93;21.90;;;18.20;99.90;;;;;;5015272;28;20457;-71
2021/09/24 08:45:07;;;;;;;23.70;21.60;;;18.50;99.90;;;;;;5005317;28;20454;-71
2021/09/24 08:47:37;;;;;;;24.73;22.43;;;18.70;99.90;;;;;;5011060;28;20515;-72
2021/09/24 08:50:07;;;;;;;23.77;21.77;;;18.70;99.90;;;;;;5015761;28;20998;-71
2021/09/24 08:52:35;;;;;;;23.90;21.70;;;18.90;99.90;;;;;;5010585;28;20468;-71
2021/09/24 08:55:02;;;;;;;24.20;22.00;;;19.00;99.90;;;;;;5009438;28;20502;-71
2021/09/24 08:57:29;;;;;;;22.07;19.93;;;19.00;99.90;;;;;;5010073;28;20987;-70
2021/09/24 08:59:56;;;;;;;22.43;20.43;;;18.90;99.90;;;;;;5011525;28;20462;-70
2021/09/24 09:02:23;;;;;;;28.20;21.30;;;19.00;99.90;;;;;;5015913;28;20454;-70
2021/09/24 09:04:50;;;;;;;23.57;20.23;;;19.00;99.90;;;;;;5004056;28;20505;-70
2021/09/24 09:07:21;;;;;;;25.07;22.60;;;18.80;99.90;;;;;;5011937;28;20468;-70
2021/09/24 09:09:50;;;;;;;23.70;21.60;;;18.90;99.90;;;;;;5009003;28;20473;-70
2021/09/24 09:12:18;;;;;;;24.90;22.33;;;19.00;99.90;;;;;;5008788;28;20511;-69
2021/09/24 09:14:59;;;;;;;24.57;22.07;;;19.10;99.90;;;;;;5013962;28;20472;-70
2021/09/24 09:17:31;;;;;;;23.90;21.70;;;19.10;99.90;;;;;;5014018;28;20464;-70
2021/09/24 09:20:10;;;;;;;25.20;22.53;;;19.20;99.90;;;;;;5015385;28;20470;-70
2021/09/24 09:22:39;;;;;;;24.00;21.83;;;19.30;99.90;;;;;;5020955;27;20915;-70
2021/09/24 09:25:12;;;;;;;24.80;22.17;;;19.50;99.90;;;;;;5004275;28;20485;-70
2021/09/24 09:27:39;;;;;;;22.30;20.30;;;19.80;99.90;;;;;;5012068;28;20867;-70
2021/09/24 09:30:11;;;;;;;23.93;21.47;;;20.20;99.90;;;;;;5014074;28;20779;-70
2021/09/24 09:32:39;;;;;;;27.90;22.07;;;20.50;99.90;;;;;;5012116;28;20468;-70
2021/09/24 09:35:07;;;;;;;24.67;22.40;;;20.50;99.90;;;;;;5013706;28;20465;-70
2021/09/24 09:37:40;;;;;;;25.63;23.20;;;20.40;99.90;;;;;;5012587;28;20555;-71
2021/09/24 09:40:11;;;;;;;25.00;22.70;;;20.00;99.90;;;;;;5010270;28;20975;-70
2021/09/24 09:42:40;;;;;;;25.30;23.00;;;20.00;99.90;;;;;;5007548;28;20465;-70
2021/09/24 09:45:09;;;;;;;26.63;23.97;;;20.00;99.90;;;;;;5008824;28;20821;-71
2021/09/24 09:47:38;;;;;;;25.93;23.43;;;19.90;99.90;;;;;;5014776;28;20457;-70
2021/09/24 09:50:08;;;;;;;24.90;22.70;;;20.30;99.90;;;;;;5010782;28;20567;-70
2021/09/24 09:52:56;;;;;;;24.03;21.90;;;20.40;99.90;;;;;;5007837;28;20462;-71
2021/09/24 09:55:24;;;;;;;23.77;21.73;;;20.40;99.90;;;;;;5006135;28;21167;-70
2021/09/24 09:57:52;;;;;;;24.47;21.67;;;20.70;99.90;;;;;;5008952;28;20470;-71
2021/09/24 10:00:20;;;;;;;22.30;20.27;;;21.20;99.90;;;;;;5007412;28;20825;-69
2021/09/24 10:02:49;;;;;;;22.27;20.10;;;22.00;99.90;;;;;;5006972;28;20975;-69
2021/09/24 10:05:37;;;;;;;22.50;20.00;;;22.20;99.90;;;;;;5010247;28;20468;-69
2021/09/24 10:08:26;;;;;;;25.50;23.20;;;21.90;99.90;;;;;;5015120;28;20461;-70
2021/09/24 10:10:58;;;;;;;23.00;20.93;;;21.30;99.90;;;;;;5007262;28;20581;-71
2021/09/24 10:13:27;;;;;;;23.50;20.83;;;21.20;99.90;;;;;;5007877;28;20484;-70
2021/09/24 10:15:54;;;;;;;25.63;22.27;;;20.80;99.90;;;;;;5007099;28;20488;-70
2021/09/24 10:18:22;;;;;;;23.30;20.97;;;20.80;99.90;;;;;;5005301;27;20476;-70
2021/09/24 10:20:50;;;;;;;23.13;20.80;;;20.90;99.90;;;;;;5007056;28;20453;-71
2021/09/24 10:23:18;;;;;;;21.40;19.50;;;20.90;99.90;;;;;;5013051;27;20464;-70
2021/09/24 10:25:55;;;;;;;22.23;20.13;;;21.20;99.90;;;;;;5006524;28;20457;-72
2021/09/24 10:28:29;;;;;;;21.10;19.37;;;21.30;99.90;;;;;;5005270;28;21237;-71
2021/09/24 10:30:57;;;;;;;19.70;18.00;;;21.20;99.90;;;;;;5011335;28;20529;-71
2021/09/24 10:33:47;;;;;;;21.43;19.40;;;21.20;99.90;;;;;;5012294;28;20465;-70
2021/09/24 10:36:50;;;;;;;19.60;17.97;;;21.20;99.90;;;;;;5013217;28;20504;-69
2021/09/24 10:39:41;;;;;;;21.10;19.40;;;21.30;99.90;;;;;;5005131;28;20470;-72
2021/09/24 10:42:40;;;;;;;19.37;18.07;;;21.70;99.90;;;;;;5005976;28;21794;-72
2021/09/24 10:45:19;;;;;;;17.70;16.20;;;21.90;99.90;;;;;;5008591;28;20857;-71
2021/09/24 10:47:56;;;;;;;18.40;17.00;;;22.20;99.90;;;;;;5005526;28;20457;-71
2021/09/24 10:51:00;;;;;;;17.87;16.30;;;22.90;99.90;;;;;;5005271;28;20481;-72
2021/09/24 10:53:29;;;;;;;17.83;16.63;;;23.60;99.90;;;;;;5006490;28;20544;-70
2021/09/24 10:56:25;;;;;;;17.67;16.17;;;23.10;99.90;;;;;;5012298;28;20542;-72
2021/09/24 10:58:53;;;;;;;17.50;16.20;;;23.00;99.90;;;;;;5010076;28;20557;-71
2021/09/24 11:01:40;;;;;;;18.00;16.50;;;23.50;99.90;;;;;;5008964;28;20994;-72
2021/09/24 11:04:12;;;;;;;17.50;16.40;;;23.30;99.90;;;;;;5003354;28;20480;-70
2021/09/24 11:06:43;;;;;;;17.90;16.33;;;23.00;99.90;;;;;;5004493;28;20851;-72
2021/09/24 11:09:12;;;;;;;16.90;15.80;;;22.30;99.90;;;;;;5009731;28;20479;-71
2021/09/24 11:11:41;;;;;;;17.37;16.07;;;22.10;99.90;;;;;;4993549;28;20493;-71
2021/09/24 11:14:28;;;;;;;17.17;15.90;;;22.10;99.90;;;;;;5009622;28;20484;-71
2021/09/24 11:16:56;;;;;;;17.33;15.87;;;22.20;99.90;;;;;;5003533;28;20461;-71
2021/09/24 11:19:35;;;;;;;17.43;16.13;;;22.70;99.90;;;;;;5002877;28;20968;-72
2021/09/24 11:22:12;;;;;;;17.57;16.33;;;22.60;99.90;;;;;;5010059;28;20480;-71
2021/09/24 11:24:41;;;;;;;17.30;16.07;;;22.40;99.90;;;;;;5007314;28;20462;-72
2021/09/24 11:27:10;;;;;;;16.23;15.23;;;22.20;99.90;;;;;;5005956;28;20460;-74
2021/09/24 11:30:03;;;;;;;18.57;17.00;;;21.80;99.90;;;;;;5009441;28;20460;-72
2021/09/24 11:32:32;;;;;;;17.03;16.03;;;22.00;99.90;;;;;;5011662;28;20497;-71
2021/09/24 11:35:00;;;;;;;17.40;16.20;;;22.00;99.90;;;;;;5007036;28;20457;-73
2021/09/24 11:37:28;;;;;;;16.47;15.50;;;22.20;99.90;;;;;;5010899;28;20464;-72
2021/09/24 11:39:58;;;;;;;16.60;15.50;;;22.10;99.90;;;;;;5005592;28;20466;-71
2021/09/24 11:42:26;;;;;;;17.30;16.10;;;21.90;99.90;;;;;;5004556;28;20461;-74
2021/09/24 11:44:56;;;;;;;17.23;15.93;;;21.90;99.90;;;;;;5009263;28;20965;-72
2021/09/24 11:47:25;;;;;;;16.60;15.17;;;21.80;99.90;;;;;;5009644;28;20479;-71
2021/09/24 11:49:57;;;;;;;17.30;16.10;;;22.00;99.90;;;;;;5009218;28;20586;-72
2021/09/24 11:52:25;;;;;;;16.13;15.30;;;22.00;99.90;;;;;;5004029;28;20854;-72
2021/09/24 11:54:52;;;;;;;18.50;17.27;;;22.00;99.90;;;;;;5002443;28;20457;-71
2021/09/24 11:57:20;;;;;;;16.80;15.50;;;21.90;99.90;;;;;;5005340;28;20473;-70
2021/09/24 11:59:47;;;;;;;18.03;16.60;;;21.60;99.90;;;;;;5009675;28;20473;-71
2021/09/24 12:02:23;;;;;;;16.77;15.60;;;21.70;99.90;;;;;;5006500;28;20468;-72
2021/09/24 12:04:59;;;;;;;15.40;14.50;;;21.80;99.90;;;;;;5009606;28;20492;-71
2021/09/24 12:07:26;;;;;;;17.13;15.93;;;22.10;99.90;;;;;;5012215;28;20467;-71
2021/09/24 12:09:58;;;;;;;17.03;15.63;;;22.30;99.90;;;;;;5010988;28;20469;-71
2021/09/24 12:12:25;;;;;;;16.27;14.57;;;22.80;99.90;;;;;;5011405;28;20865;-74
2021/09/24 12:14:57;;;;;;;15.20;13.93;;;23.70;99.90;;;;;;5013218;28;20533;-72
2021/09/24 12:17:27;;;;;;;15.23;14.13;;;24.40;99.90;;;;;;5010611;28;20464;-72
2021/09/24 12:19:54;;;;;;;16.13;14.93;;;24.80;99.90;;;;;;5012051;28;20462;-71
2021/09/24 12:22:22;;;;;;;16.10;14.90;;;25.20;99.90;;;;;;5014028;28;20462;-72
2021/09/24 12:24:49;;;;;;;16.50;15.27;;;25.40;99.90;;;;;;5012856;28;20460;-72
2021/09/24 12:27:24;;;;;;;16.77;15.77;;;24.90;99.90;;;;;;5008949;28;20450;-71
2021/09/24 12:29:51;;;;;;;16.53;14.87;;;24.20;99.90;;;;;;5015428;28;20826;-72
2021/09/24 12:32:19;;;;;;;15.57;14.67;;;24.10;99.90;;;;;;5015081;28;20503;-74
2021/09/24 12:34:49;;;;;;;16.63;15.53;;;24.10;99.90;;;;;;5012412;28;20453;-72
2021/09/24 12:37:17;;;;;;;16.10;15.10;;;23.70;99.90;;;;;;5012143;28;20462;-71